Aeroporto :
LOGIN :

Iscrizione | Disclaimer

   EN    FR    IT 

 










Sommario :    VFR   VFR Marginale   IFR   IFR Intensivo   IFR Molto Intensivo
Visibilità : 
Base nubi : 
>= 8 km
>= 3000ft
5 / 8 km
1000 / 3000 ft
1500m / 5 km
500 / 1000 ft
800 / 1500m
200 / 500 ft
< 800m
< 200 ft
Simboli :   Temporali  Nebbia  Neve Forte  Precipitazioni Forti  Vento > 20 kt
SIGMETs :   Varie  Temporali  Ghiacco  Turbolenza  Onda orograficha  Ceneri Vulcaniche






- Altitudine del aeroporto : 289 ft
- Codice IATA : ZAD


LDZD - Zadar

ULTIMO METAR :
  • 210030Z 13005KT CAVOK 00/M05 Q1024

METARs OBSOLETI :
  • 210000Z 13006KT CAVOK 01/M04 Q1024
  • 202330Z 15004KT CAVOK 00/M03 Q1024
  • 202300Z 13004KT CAVOK M00/M03 Q1024
  • 202230Z 11002KT CAVOK 00/M03 Q1024
  • 202200Z 13003KT CAVOK 01/M03 Q1024

TAF TAF LDZD
Valido dal 21 a 00 ore il 22 a 00 ore UTC


202325Z 2100/2200 06005KT CAVOK TX14/2113Z TNM02/2104Z
BECMG 2110/2112 32008KT
BECMG 2115/2117 06010KT



MetMap, La meteo Aeronautica in un colpo d'occhio ! - Copyright ORBIFLY Dicembre 2007 - Disclaimer

ORBIFLY MET'MAP TEAM :

Programmazione e sviluppo : Alexandra Zaïnal
Concezione : Baudouin d'Aumeries
Aiuto per la programmazione : Marc-Olivier Méhu
Supporto tecnico e logistico : Manuel Goepfert
Aiuto per la traduzione : Arnaldo La Scala

Contatto : metmap@orbifly.com




FONTI E CREDITI :

   NOAA